SPORTident TimingEisenacher Leichtathletik Verein e.V.

Winterlaufserie des Eisenacher LV 2014
--- Ergebnisliste ---

Zur Ergebnisliste 4. Winterlaufserie 2014, Lauf 1 (Creuzburg, 26.01.2014) 
Zur Ergebnisliste 4. Winterlaufserie 2014, Lauf 2 (Creuzburg, 23.02.2014) 
Zur Ergebnisliste 4. Winterlaufserie 2014, Lauf 3 (Creuzburg, 30.03.2014) 
 
Teilnehmer können doppelt vorkommen bei unterschiedlicher Schreibweise ihres Namens. Informationen dazu bitte per Mail.

Männer kurze Strecke (5,5 km)

PlaceNomClub Temps total26.01.1423.02.1430.03.14
männliche Jugend U14 (12-13 Jahre) (M14K)
1Riesner, JanEisenacher LV 1:12:020:23:500:24:230:23:49
2Porzelt, JanisSV 1899 Mühlhausen 1:17:520:26:230:26:230:25:06
3Schein, Tobias DominikEisenacher LV 1:28:170:29:370:28:590:29:41
4Heintze, KjellHainichläufer 1:35:330:31:300:32:580:31:05
 
männliche Jugend U16 (14-15 Jahre) (M16K)
1Freitag, RomanELV 1:10:530:23:420:23:290:23:42
2Eckert, Scott1.TSV Bad Salzungen 1:21:540:27:300:27:150:27:09
 
männliche Jugend U18 (16-17 Jahre) (M18K)
1Hoßbach, JulianRittmannshausen 1:23:150:27:130:28:200:27:42
 
Senioren M30 (30-34 Jahre) (M30K)
1Hofmeister, AlexanderSC Fortuna Erfurt 96 e.V. 1:29:540:29:420:29:550:30:17
 
Senioren M40 (40-44 Jahre) (M40K)
1Steinwachs, BertSV Normania Treffurt 1:07:050:22:450:22:410:21:39
2Winter, TorstenSV Ichtershausen 1:07:110:22:420:22:220:22:07
3Hoßbach, StefanRittmannshausen 1:10:450:23:300:23:480:23:27
 
Senioren M45 (45-49 Jahre) (M45K)
1Leihbecher, PeterSV Ichtershausen 1:01:400:20:420:20:330:20:25
2Andrä, MarioLauftreff Breitungen 1:14:170:24:000:26:130:24:04
 
Senioren M50 (50-54 Jahre) (M50K)
1Walch, FredyRhöner WSV 1:04:220:21:230:21:580:21:01
 
Senioren M55 (55-59 Jahre) (M55K)
1Nussbicker, DieterSonntagsläufer Tambach-Dietharz 1:33:100:32:470:31:250:28:58
 
Senioren M65 (65-69 Jahre) (M65K)
1Hennig, BernhardZack- Zack Runners Eisenach 1:21:010:26:400:26:310:27:50
2Hartung, DieterStedtfelder Rennsteigfreunde 1:36:380:32:470:31:240:32:27
 
Senioren M70 (70-74 Jahre) (M70K)
1Gräf, WalterSki-Nordisch-Tabarz 1:42:580:34:200:33:520:34:46
2Mahr, DieterTV 03 Breitenbach 1:53:570:43:290:36:320:33:56
3Zetzmann, JürgenStedtfelder Rennsteigfreunde 2:05:400:43:290:39:100:43:01
 
Senioren M75 (75 und älter) (M75K)
1Weber, RudiStedtfelder Rennsteigfreunde 1:34:140:32:050:31:350:30:34
 
Männer (20-29 Jahre) (MMäK)
1Ernst, MarcelSonntagsläufer Tambach Dietharz 1:09:270:23:020:23:180:23:07
2Gutsch, ChrisMoorgrund 1:21:290:27:220:27:310:26:36
 
 

Frauen kurze Strecke (5,5 km)

PlaceNomClub Temps total26.01.1423.02.1430.03.14
weibliche Jugend U16 (14-15 Jahre) (W16K)
1Backhaus, FranziskaEisenacher Leichtathletik Verein 1:24:180:28:400:27:270:28:11
2Dinkel, LinSV Normania Treffurt 1:27:100:27:450:30:330:28:52
3Heintze, AnnikaHainichläufer 1:30:260:31:300:29:020:29:54
 
weibliche Jugend U18 (16-17 Jahre) (W18K)
1Schroth, KatjaISA Runners 1:24:460:28:010:28:030:28:42
 
Seniorinnen W30 (30-34 Jahre) (W30K)
1Weiß, ChristineTreffurt 2:04:410:41:370:44:000:39:04
 
Seniorinnen W40 (40-44 Jahre) (W40K)
1Beyer, NicoleSV Ichtershausen 1:17:000:25:560:25:490:25:15
 
Seniorinnen W50 (50-54 Jahre) (W50K)
1Jendrischewski, KarinBSG Wartburg-Sparkasse 1:44:060:34:530:34:350:34:38
 
 

Männer lange Strecke (11,3 km)

PlaceNomClub Temps total26.01.1423.02.1430.03.14
Senioren M30 (30-34 Jahre) (M30L)
1Zimmermann, StefanLG Ohra Energie 2:09:060:42:510:42:010:44:14
2Lämmerhirt, Dennis1. Eichsfelder Sportclub e.V. 2:09:350:42:560:42:500:43:49
 
Senioren M35 (35-39 Jahre) (M35L)
1Abraham, DanielLuisenthal 2:06:540:41:580:42:150:42:41
2Obenhaus, StefanAutohaus Göthling 2:38:160:52:140:52:320:53:30
3Böttger, MatthiasFSV Wutha-Farnroda 2:44:390:55:500:55:190:53:30
 
Senioren M40 (40-44 Jahre) (M40L)
1Reisser, MarioFadfighters 2:43:050:54:470:54:370:53:41
2Schmidt, KnutBärfelser Säcke 2:44:420:57:120:54:330:52:57
3Wetterau, LarsEisenach 2:52:500:57:220:57:400:57:48
 
Senioren M45 (45-49 Jahre) (M45L)
1Dressler, MarcoBruchstedt 2:18:120:46:490:45:260:45:57
2Kuhn, ThomasSVW Eisenach Triathlon 2:26:300:48:090:48:280:49:53
3Eckert, OlafVV Werratal 3:00:521:03:070:58:400:59:05
 
Senioren M50 (50-54 Jahre) (M50L)
1Kölsch, WolfgangOstwest Express e.V. 2:22:260:48:110:47:170:46:58
2Schudera, MatthiasSV Wartburgstadt 2:32:050:51:230:50:490:49:53
3Anschütz, ReinhardFSV 1950 Gotha e.V. 2:51:270:56:330:57:370:57:17
4Matthes, JanLauftreff Breitungen 3:20:491:09:401:06:001:05:09
 
Senioren M55 (55-59 Jahre) (M55L)
1Hesse, UwePhysio K.Hesse 2:17:420:46:120:45:470:45:43
 
Senioren M65 (65-69 Jahre) (M65L)
 
Senioren M70 (70-74 Jahre) (M70L)
 
Männer (20-29 Jahre) (MMäL)
 
 

Frauen lange Strecke (11,3 km)

PlaceNomClubUrkundeTemps total26.01.1423.02.1430.03.14
Seniorinnen W40 (40-44 Jahre) (W40L)
1Heintze, SandraHainichläufer 2:58:100:59:320:59:460:58:52
2Genau, LianeBike-Service- Eisenach 3:35:391:12:011:11:551:11:43
 
Seniorinnen W45 (45-49 Jahre) (W45L)
1Freitag, AnnettEtterwinden 2:42:060:54:350:54:040:53:27
 
Seniorinnen W60 (60-64 Jahre) (W60L)
1Krahmann, GabrieleEisenach 2:31:510:50:350:50:430:50:33
 
 

Gesamt Männer kurze Strecke (5,5 km)

PlaceNomClub Temps total26.01.1423.02.1430.03.14
1Leihbecher, PeterSV Ichtershausen 1:01:400:20:420:20:330:20:25
2Walch, FredyRhöner WSV 1:04:220:21:230:21:580:21:01
3Steinwachs, BertSV Normania Treffurt 1:07:050:22:450:22:410:21:39
4Winter, TorstenSV Ichtershausen 1:07:110:22:420:22:220:22:07
5Ernst, MarcelSonntagsläufer Tambach Dietharz 1:09:270:23:020:23:180:23:07
6Hoßbach, StefanRittmannshausen 1:10:450:23:300:23:480:23:27
7Freitag, RomanELV 1:10:530:23:420:23:290:23:42
8Riesner, JanEisenacher LV 1:12:020:23:500:24:230:23:49
9Andrä, MarioLauftreff Breitungen 1:14:170:24:000:26:130:24:04
10Porzelt, JanisSV 1899 Mühlhausen 1:17:520:26:230:26:230:25:06
11Hennig, BernhardZack- Zack Runners Eisenach 1:21:010:26:400:26:310:27:50
12Gutsch, ChrisMoorgrund 1:21:290:27:220:27:310:26:36
13Eckert, Scott1.TSV Bad Salzungen 1:21:540:27:300:27:150:27:09
14Hoßbach, JulianRittmannshausen 1:23:150:27:130:28:200:27:42
15Schein, Tobias DominikEisenacher LV 1:28:170:29:370:28:590:29:41
16Hofmeister, AlexanderSC Fortuna Erfurt 96 e.V. 1:29:540:29:420:29:550:30:17
17Nussbicker, DieterSonntagsläufer Tambach-Dietharz 1:33:100:32:470:31:250:28:58
18Weber, RudiStedtfelder Rennsteigfreunde 1:34:140:32:050:31:350:30:34
19Heintze, KjellHainichläufer 1:35:330:31:300:32:580:31:05
20Hartung, DieterStedtfelder Rennsteigfreunde 1:36:380:32:470:31:240:32:27
21Gräf, WalterSki-Nordisch-Tabarz 1:42:580:34:200:33:520:34:46
22Mahr, DieterTV 03 Breitenbach 1:53:570:43:290:36:320:33:56
23Zetzmann, JürgenStedtfelder Rennsteigfreunde 2:05:400:43:290:39:100:43:01
 
 

Gesamt Frauen kurze Strecke (5,5 km)

PlaceNomClub Temps total26.01.1423.02.1430.03.14
1Beyer, NicoleSV Ichtershausen 1:17:000:25:560:25:490:25:15
2Backhaus, FranziskaEisenacher Leichtathletik Verein 1:24:180:28:400:27:270:28:11
3Schroth, KatjaISA Runners 1:24:460:28:010:28:030:28:42
4Dinkel, LinSV Normania Treffurt 1:27:100:27:450:30:330:28:52
5Heintze, AnnikaHainichläufer 1:30:260:31:300:29:020:29:54
6Jendrischewski, KarinBSG Wartburg-Sparkasse 1:44:060:34:530:34:350:34:38
7Weiß, ChristineTreffurt 2:04:410:41:370:44:000:39:04
 
 

Gesamt Männer lange Strecke (11,3 km)

PlaceNomClub Temps total26.01.1423.02.1430.03.14
1Abraham, DanielLuisenthal 2:06:540:41:580:42:150:42:41
2Zimmermann, StefanLG Ohra Energie 2:09:060:42:510:42:010:44:14
3Lämmerhirt, Dennis1. Eichsfelder Sportclub e.V. 2:09:350:42:560:42:500:43:49
4Hesse, UwePhysio K.Hesse 2:17:420:46:120:45:470:45:43
5Dressler, MarcoBruchstedt 2:18:120:46:490:45:260:45:57
6Kölsch, WolfgangOstwest Express e.V. 2:22:260:48:110:47:170:46:58
7Kuhn, ThomasSVW Eisenach Triathlon 2:26:300:48:090:48:280:49:53
8Schudera, MatthiasSV Wartburgstadt 2:32:050:51:230:50:490:49:53
9Obenhaus, StefanAutohaus Göthling 2:38:160:52:140:52:320:53:30
10Reisser, MarioFadfighters 2:43:050:54:470:54:370:53:41
11Böttger, MatthiasFSV Wutha-Farnroda 2:44:390:55:500:55:190:53:30
12Schmidt, KnutBärfelser Säcke 2:44:420:57:120:54:330:52:57
13Anschütz, ReinhardFSV 1950 Gotha e.V. 2:51:270:56:330:57:370:57:17
14Wetterau, LarsEisenach 2:52:500:57:220:57:400:57:48
15Eckert, OlafVV Werratal 3:00:521:03:070:58:400:59:05
16Matthes, JanLauftreff Breitungen 3:20:491:09:401:06:001:05:09
 
 

Gesamt Frauen lange Strecke (11,3 km)

PlaceNomClub Temps total26.01.1423.02.1430.03.14
1Krahmann, GabrieleEisenach 2:31:510:50:350:50:430:50:33
2Freitag, AnnettEtterwinden 2:42:060:54:350:54:040:53:27
3Heintze, SandraHainichläufer 2:58:100:59:320:59:460:58:52
4Genau, LianeBike-Service- Eisenach 3:35:391:12:011:11:551:11:43